x

Southeast Bering Sea -205nm Wnw Of Dutch Harbor, Ak (46073) Wave Buoy

7:50 - Fri 31st Oct 2014 All times are UTC.

  • Sig Wave height 25.3ft
  • Swell Direction
  • Peak Period 13s
  • Average Period 10s
  • Wind
    38mph, 49mph gusts
  • Sea Temp 44°f
  • Luft Temp 42°f
  • Sea Pressure 975.9mb

More Historic Weather Station data

Upgrade to MSW Pro to gain access to the past 30 days of data for over 8000 Wavebouys and Weather Stations around the globe.

Join Pro

Comparision Forecast

View Surf forecast
   
Fr 10/31 7:50 25.5ft 13s 10s 38 49 mph 975.9mb 44f 42f
6:50 25.5ft 13s 10s 36 47 mph 975.5mb 44f 43f
5:50 29ft 14s 11s 38 49 mph 974.6mb 44f 43f
4:50 25.5ft 12s 10s 31 38 mph 973.2mb 44f 44f
3:50 23ft 13s 9s 38 51 mph 972.3mb 44f 42f
2:50 22.5ft 12s 9s  -  mph 972.2mb 44f 42f
1:50 21.5ft 13s 9s 43 54 mph 971.7mb 44f 42f
12:50 20.5ft 11s 9s 43 56 mph 970.3mb 44f 42f
11:50 20.5ft 11s 8s 49 60 mph 967.4mb 44f 42f
10:50 16.5ft 9s 8s 47 56 mph 966.1mb 44f 43f
9:50 15ft 10s 7s 40 51 mph 966.6mb 44f 44f
8:50 13ft 9s 7s 27 34 mph 967.1mb 44f 44f
7:50 12ft 8s 7s 20 25 mph 967.9mb 44f 44f
6:50 11ft 8s 7s 22 25 mph 969.1mb 44f 45f
5:50 10.5ft 8s 7s 22 27 mph 971.2mb 44f 46f
4:50 10.5ft 8s 6s 22 27 mph 972.8mb 44f 46f
3:50 8.5ft 8s 6s 27 34 mph 974.1mb 44f 47f
2:50 9ft 8s 6s 22 29 mph 976.4mb 44f 46f
1:50 9ft 6s 6s 27 31 mph 978.6mb 44f 47f
12:50 8.5ft 6s 6s 29 38 mph 981.1mb 44f 47f
Do 10/30 11:50 7ft 6s 6s 29 34 mph 983.9mb 44f 46f
10:50 6ft 6s 5s 25 29 mph 987.1mb 44f 46f
9:50 6ft 6s 5s 22 29 mph 990.1mb 44f 46f
8:50 5.5ft 9s 5s 25 29 mph 992.8mb 44f 44f
7:50 5ft 9s 5s 25 31 mph 995.2mb 44f 43f
6:50 4.5ft 8s 5s 22 27 mph 997.8mb 44f 43f
5:50 4.5ft 6s 6s 20 22 mph 1000.6mb 44f 43f
4:50 4.5ft 8s 6s 16 18 mph 1002.4mb 44f 43f
3:50 4.5ft 7s 6s 13 16 mph 1003.8mb 44f 43f
2:50 4ft 6s 6s 4 9 mph 1005.4mb 44f 43f
1:50 4.5ft 7s 5s 2 4 mph 1006.3mb 44f 43f
12:50 4.5ft 6s 5s 4 7 mph 1007.2mb 44f 43f
11:50 4.5ft 6s 5s 7 9 mph 1007.8mb 44f 44f
10:50 4.5ft 6s 5s 9
mph
1008.2mb 44f 44f
9:50 5ft 6s 5s 13 16 mph 1008.7mb 44f 43f
8:50 5ft 6s 5s 11 16 mph 1008.4mb 44f 43f
7:50 5ft 7s 5s 13 16 mph 1007.2mb 44f 43f
6:50 5ft 7s 5s 16 20 mph 1007.7mb 44f 43f
5:50 5.5ft 6s 6s 16 18 mph 1006.7mb 44f 44f
4:50 5.5ft 7s 6s 11 13 mph 1006.7mb 44f 45f
3:50 6.5ft 7s 6s 11 13 mph 1006.7mb 44f 45f
2:50 7.5ft 7s 6s 11 16 mph 1006.2mb 44f 44f
1:50 7.5ft 7s 6s 16 20 mph 1006.6mb 44f 44f
12:50 8ft 7s 6s 22 29 mph 1006.8mb 44f 43f
Mi 10/29 11:50 9ft 6s 6s 27 31 mph 1008.1mb 44f 42f
10:50 8ft 6s 6s 27 34 mph 1010mb 44f 41f
9:50 7.5ft 11s 6s 34 40 mph 1009.8mb 44f 41f
8:50 7ft 9s 6s 29 36 mph 1011.9mb 44f 40f
7:50 7.5ft 10s 6s 25 31 mph 1013.8mb 44f 40f
6:50 8ft 10s  -  22 27 mph 1015mb 44f 39f
5:50 9ft 9s 8s 20 25 mph 1015.9mb 44f 38f
4:50 10ft 11s 8s 16 20 mph 1017.2mb 44f 39f
3:50 9ft 11s 8s 9 13 mph 1018mb 44f 41f
2:50 10ft 11s 8s 9 13 mph 1018.7mb 44f 40f
1:50 11ft 11s 8s 4 7 mph 1019.7mb 44f 40f
12:50 11.5ft 11s 8s 4 7 mph 1020.6mb 44f 40f
11:50 11ft 9s 8s 4 9 mph 1021.1mb 44f 40f
10:50 12ft 11s 8s 9 11 mph 1021.3mb 44f 40f
9:50 13ft 11s 8s 13 20 mph 1021.5mb 44f 40f
8:50 13ft 10s 8s 16 22 mph 1021.5mb 44f 41f
7:50 13ft 12s 8s 13 16 mph 1021.7mb 44f 40f
6:50 13ft 11s 8s 20 25 mph 1021.1mb 44f 40f
5:50 14.5ft 11s 8s 22 29 mph 1021.3mb 44f 41f
4:50 16ft 12s 8s 25 29 mph 1020.6mb 44f 40f
3:50 17.5ft 11s 9s 27 34 mph 1020mb 44f 40f
2:50 16.5ft 12s 8s 25 31 mph 1019.6mb 44f 41f
1:50 17.5ft 11s 9s 27 34 mph 1018.8mb 44f 41f
12:50 17.5ft 13s 8s 31 40 mph 1018.3mb 44f 40f
Di 10/28 11:50 18.5ft 12s 9s 31 38 mph 1018mb 44f 41f
10:50 16ft 12s 8s 31 43 mph 1018mb 44f 41f
9:50 17.5ft 13s 8s 29 40 mph 1017.3mb 44f 40f
8:50 17ft 12s 8s 29 36 mph 1017mb 44f 40f
7:50 18.5ft 13s 9s 34 40 mph 1016.6mb 44f 41f
6:50 19.5ft 11s 9s 31 38 mph 1015.7mb 44f 42f
5:50 19.5ft 12s 8s 29 38 mph 1014.9mb 44f 41f
4:50 16.5ft 12s 8s 27 36 mph 1014.7mb 44f 40f
3:50 17ft 12s 8s 34 43 mph 1014.1mb 44f 39f
2:50 18ft 12s 8s 29 34 mph 1013.9mb 44f 39f
1:50 18.5ft 13s 9s 31 40 mph 1012.9mb 44f 40f
12:50 17.5ft 11s 8s 34 43 mph 1012.3mb 44f 37f
11:50 17.5ft 12s 9s 29 38 mph 1011.5mb 44f 39f
10:50 17.5ft 13s 9s 31 45 mph 1010.3mb 44f 39f
9:50 16.5ft 12s 8s 29 34 mph 1009.5mb 44f 40f
8:50 18ft 12s 8s 29 36 mph 1009mb 44f 39f
7:50 15.5ft 12s 8s 29 38 mph 1008.4mb 44f 40f
6:50 17.5ft 11s 8s 29 38 mph 1007.8mb 44f 39f
5:50 15ft 11s 8s 31 40 mph 1007.4mb 44f 38f
4:50 15ft 11s 8s 34 47 mph 1006.9mb 44f 38f
3:50 15.5ft 11s 8s 29 36 mph 1007.1mb 44f 39f
2:50 15.5ft 11s 8s 27 34 mph 1006.7mb 44f 40f
1:50 16.5ft 11s 8s 31 36 mph 1006.1mb 44f 39f
12:50 15.5ft 11s 8s 25 31 mph 1006.1mb 44f 39f
Mo 10/27 11:50 16.5ft 11s 8s 27 34 mph 1005.8mb 44f 39f
10:50 16ft 11s 8s 29 36 mph 1005.2mb 44f 39f
9:50 15ft 10s 8s 34 40 mph 1004.3mb 44f 39f